PWSweather.com
Personal Weather Stations
Station Observations
WAIROAHB
Wairoa, Northern Hawkes Bay -NZ 4108

WairoaNorthern Hawkes Bay -NZ 4108

Lat: -39.04516934, Lon: 177.4263989

Elevation: 156

Station Type: WS3083

http://wairoa.net/weather/index.htm

High Low Average
Temperature 75.6°F24.2°C 53.4°F11.9°C 64.0°F17.8°C
Dew Point 64.4°F18.0°C 52.8°F11.6°C 59.6°F15.3°C
Winds 9.8 mph 15.8 kmh Calm Calm 3.0 mph SSW4.8 kmh SSW
Wind Gusts 13.6 mph21.9 kmh -- 7.0 mph11.3 kmh
Humidity 99% 61% 87%
Pressure 30.22 in1023.4 mb 30.07 in1018.3 mb -
Precipitation 0.01 in0.3 mm - -
Hour Temp Dew Point Humidity Winds Wind Gusts Pressure Precip Precip Rate Daily Precip Total
12:00 AM 57.2°F14.0°C 56.9°F13.8°C 99% 2.2 mph NNW3.5 kmh NNW 4.5 mph7.2 kmh 30.09 in1019.0 mb 0.00 in0.0 mm 0.00 in0.0 mm 0.00 in0.0 mm
12:10 AM 56.8°F13.8°C 56.6°F13.7°C 99% 4.5 mph NW7.2 kmh NW 6.9 mph11.1 kmh 30.09 in1019.0 mb 0.00 in0.0 mm 0.00 in0.0 mm 0.00 in0.0 mm
12:20 AM 56.7°F13.7°C 56.4°F13.6°C 99% 3.8 mph NNW6.1 kmh NNW 8.3 mph13.4 kmh 30.09 in1019.0 mb 0.00 in0.0 mm 0.00 in0.0 mm 0.00 in0.0 mm
12:30 AM 56.5°F13.6°C 56.2°F13.4°C 99% Calm Calm 7.6 mph12.2 kmh 30.09 in1019.0 mb 0.00 in0.0 mm 0.00 in0.0 mm 0.00 in0.0 mm
12:40 AM 56.5°F13.6°C 56.2°F13.4°C 99% 3.8 mph N6.1 kmh N 9.2 mph14.8 kmh 30.09 in1019.0 mb 0.00 in0.0 mm 0.00 in0.0 mm 0.00 in0.0 mm
12:50 AM 56.3°F13.5°C 56.0°F13.3°C 99% 3.1 mph N5.0 kmh N 7.6 mph12.2 kmh 30.09 in1019.0 mb 0.00 in0.0 mm 0.00 in0.0 mm 0.00 in0.0 mm
01:00 AM 56.3°F13.5°C 56.0°F13.3°C 99% 2.2 mph N3.5 kmh N 5.4 mph8.7 kmh 30.09 in1019.0 mb 0.00 in0.0 mm 0.00 in0.0 mm 0.00 in0.0 mm
01:10 AM 56.1°F13.4°C 55.9°F13.3°C 99% 3.8 mph N6.1 kmh N 6.0 mph9.7 kmh 30.09 in1019.0 mb 0.00 in0.0 mm 0.00 in0.0 mm 0.00 in0.0 mm
01:20 AM 55.9°F13.3°C 55.7°F13.2°C 99% 4.5 mph NW7.2 kmh NW 6.9 mph11.1 kmh 30.09 in1019.0 mb 0.00 in0.0 mm 0.00 in0.0 mm 0.00 in0.0 mm
01:30 AM 55.8°F13.2°C 55.5°F13.1°C 99% 3.1 mph NW5.0 kmh NW 9.2 mph14.8 kmh 30.08 in1018.6 mb 0.00 in0.0 mm 0.00 in0.0 mm 0.00 in0.0 mm
01:40 AM 55.6°F13.1°C 55.3°F12.9°C 99% 6.0 mph NW9.7 kmh NW 11.4 mph18.3 kmh 30.08 in1018.6 mb 0.00 in0.0 mm 0.00 in0.0 mm 0.00 in0.0 mm
01:50 AM 55.4°F13.0°C 55.1°F12.8°C 99% 6.0 mph NNW9.7 kmh NNW 9.8 mph15.8 kmh 30.08 in1018.6 mb 0.00 in0.0 mm 0.00 in0.0 mm 0.00 in0.0 mm
02:00 AM 55.4°F13.0°C 55.1°F12.8°C 99% 3.8 mph NNW6.1 kmh NNW 9.8 mph15.8 kmh 30.08 in1018.6 mb 0.00 in0.0 mm 0.00 in0.0 mm 0.00 in0.0 mm
02:10 AM 55.2°F12.9°C 54.4°F12.4°C 97% 4.5 mph NW7.2 kmh NW 9.2 mph14.8 kmh 30.08 in1018.6 mb 0.00 in0.0 mm 0.00 in0.0 mm 0.00 in0.0 mm
02:20 AM 55.2°F12.9°C 54.4°F12.4°C 97% 3.8 mph NW6.1 kmh NW 7.6 mph12.2 kmh 30.07 in1018.3 mb 0.00 in0.0 mm 0.00 in0.0 mm 0.00 in0.0 mm
02:30 AM 55.2°F12.9°C 54.4°F12.4°C 97% 3.1 mph NNW5.0 kmh NNW 9.2 mph14.8 kmh 30.07 in1018.3 mb 0.00 in0.0 mm 0.00 in0.0 mm 0.00 in0.0 mm
02:40 AM 55.0°F12.8°C 54.2°F12.3°C 97% 3.8 mph N6.1 kmh N 8.3 mph13.4 kmh 30.07 in1018.3 mb 0.00 in0.0 mm 0.00 in0.0 mm 0.00 in0.0 mm
02:50 AM 55.0°F12.8°C 54.2°F12.3°C 97% 5.4 mph NNW8.7 kmh NNW 9.2 mph14.8 kmh 30.08 in1018.6 mb 0.00 in0.0 mm 0.00 in0.0 mm 0.00 in0.0 mm
03:00 AM 54.9°F12.7°C 54.0°F12.2°C 97% 6.0 mph NW9.7 kmh NW 9.8 mph15.8 kmh 30.07 in1018.3 mb 0.00 in0.0 mm 0.00 in0.0 mm 0.00 in0.0 mm
03:10 AM 54.7°F12.6°C 53.9°F12.2°C 97% 3.8 mph NNW6.1 kmh NNW 10.7 mph17.2 kmh 30.08 in1018.6 mb 0.00 in0.0 mm 0.00 in0.0 mm 0.00 in0.0 mm
03:20 AM 54.7°F12.6°C 53.9°F12.2°C 97% 4.5 mph NNW7.2 kmh NNW 9.2 mph14.8 kmh 30.08 in1018.6 mb 0.00 in0.0 mm 0.00 in0.0 mm 0.00 in0.0 mm
03:30 AM 54.5°F12.5°C 53.7°F12.1°C 97% 3.8 mph NW6.1 kmh NW 6.9 mph11.1 kmh 30.08 in1018.6 mb 0.00 in0.0 mm 0.00 in0.0 mm 0.00 in0.0 mm
03:40 AM 54.5°F12.5°C 53.7°F12.1°C 97% 3.1 mph NNW5.0 kmh NNW 7.6 mph12.2 kmh 30.08 in1018.6 mb 0.00 in0.0 mm 0.00 in0.0 mm 0.00 in0.0 mm
03:50 AM 54.3°F12.4°C 53.5°F11.9°C 97% 1.6 mph N2.6 kmh N 9.8 mph15.8 kmh 30.08 in1018.6 mb 0.00 in0.0 mm 0.00 in0.0 mm 0.00 in0.0 mm
04:00 AM 54.3°F12.4°C 53.5°F11.9°C 97% 3.8 mph NNW6.1 kmh NNW 6.0 mph9.7 kmh 30.09 in1019.0 mb 0.00 in0.0 mm 0.00 in0.0 mm 0.00 in0.0 mm
04:10 AM 54.3°F12.4°C 53.5°F11.9°C 97% Calm Calm 6.0 mph9.7 kmh 30.09 in1019.0 mb 0.00 in0.0 mm 0.00 in0.0 mm 0.00 in0.0 mm
04:20 AM 54.0°F12.2°C 53.1°F11.7°C 97% Calm Calm -- 30.09 in1019.0 mb 0.00 in0.0 mm 0.00 in0.0 mm 0.00 in0.0 mm
04:30 AM 53.6°F12.0°C 52.8°F11.6°C 97% 3.1 mph NW5.0 kmh NW 3.8 mph6.1 kmh 30.09 in1019.0 mb 0.00 in0.0 mm 0.00 in0.0 mm 0.00 in0.0 mm
04:40 AM 53.6°F12.0°C 52.8°F11.6°C 97% Calm Calm 3.8 mph6.1 kmh 30.09 in1019.0 mb 0.00 in0.0 mm 0.00 in0.0 mm 0.00 in0.0 mm
04:50 AM 53.4°F11.9°C 52.9°F11.6°C 98% 3.1 mph NNW5.0 kmh NNW 4.5 mph7.2 kmh 30.09 in1019.0 mb 0.00 in0.0 mm 0.00 in0.0 mm 0.00 in0.0 mm
05:00 AM 53.4°F11.9°C 52.9°F11.6°C 98% Calm Calm 4.5 mph7.2 kmh 30.09 in1019.0 mb 0.00 in0.0 mm 0.00 in0.0 mm 0.00 in0.0 mm
05:10 AM 53.8°F12.1°C 53.0°F11.7°C 97% 0.7 mph NW1.1 kmh NW 4.5 mph7.2 kmh 30.10 in1019.3 mb 0.00 in0.0 mm 0.00 in0.0 mm 0.00 in0.0 mm
05:20 AM 54.3°F12.4°C 53.5°F11.9°C 97% 2.2 mph NW3.5 kmh NW 5.4 mph8.7 kmh 30.10 in1019.3 mb 0.00 in0.0 mm 0.00 in0.0 mm 0.00 in0.0 mm
05:30 AM 54.9°F12.7°C 54.0°F12.2°C 97% 4.5 mph NNW7.2 kmh NNW 6.0 mph9.7 kmh 30.11 in1019.6 mb 0.00 in0.0 mm 0.00 in0.0 mm 0.00 in0.0 mm
05:40 AM 55.2°F12.9°C 54.4°F12.4°C 97% 4.5 mph NW7.2 kmh NW 7.6 mph12.2 kmh 30.10 in1019.3 mb 0.00 in0.0 mm 0.00 in0.0 mm 0.00 in0.0 mm
05:50 AM 55.9°F13.3°C 55.7°F13.2°C 99% 3.1 mph NNW5.0 kmh NNW 6.9 mph11.1 kmh 30.10 in1019.3 mb 0.00 in0.0 mm 0.00 in0.0 mm 0.00 in0.0 mm
06:00 AM 56.7°F13.7°C 56.4°F13.6°C 99% 3.1 mph NNW5.0 kmh NNW 6.0 mph9.7 kmh 30.10 in1019.3 mb 0.00 in0.0 mm 0.00 in0.0 mm 0.00 in0.0 mm
06:10 AM 57.6°F14.2°C 57.3°F14.1°C 99% 4.5 mph NW7.2 kmh NW 6.9 mph11.1 kmh 30.10 in1019.3 mb 0.00 in0.0 mm 0.00 in0.0 mm 0.00 in0.0 mm
06:20 AM 58.5°F14.7°C 58.2°F14.6°C 99% Calm Calm 6.9 mph11.1 kmh 30.11 in1019.6 mb 0.00 in0.0 mm 0.00 in0.0 mm 0.00 in0.0 mm
06:30 AM 59.5°F15.3°C 58.7°F14.8°C 97% Calm Calm 6.0 mph9.7 kmh 30.11 in1019.6 mb 0.00 in0.0 mm 0.00 in0.0 mm 0.00 in0.0 mm
06:40 AM 59.4°F15.2°C 57.9°F14.4°C 95% Calm Calm 4.5 mph7.2 kmh 30.12 in1020.0 mb 0.00 in0.0 mm 0.00 in0.0 mm 0.00 in0.0 mm
06:50 AM 59.4°F15.2°C 57.9°F14.4°C 95% 3.1 mph NNW5.0 kmh NNW 6.0 mph9.7 kmh 30.12 in1020.0 mb 0.00 in0.0 mm 0.00 in0.0 mm 0.00 in0.0 mm
07:00 AM 60.6°F15.9°C 58.9°F14.9°C 94% Calm Calm 6.9 mph11.1 kmh 30.12 in1020.0 mb 0.00 in0.0 mm 0.00 in0.0 mm 0.00 in0.0 mm
07:10 AM 61.2°F16.2°C 58.2°F14.6°C 90% 1.6 mph N2.6 kmh N 5.4 mph8.7 kmh 30.13 in1020.3 mb 0.00 in0.0 mm 0.00 in0.0 mm 0.00 in0.0 mm
07:20 AM 61.3°F16.3°C 58.1°F14.5°C 89% 3.1 mph NNW5.0 kmh NNW 6.0 mph9.7 kmh 30.13 in1020.3 mb 0.00 in0.0 mm 0.00 in0.0 mm 0.00 in0.0 mm
07:30 AM 63.3°F17.4°C 59.4°F15.2°C 87% 3.1 mph N5.0 kmh N 4.5 mph7.2 kmh 30.13 in1020.3 mb 0.00 in0.0 mm 0.00 in0.0 mm 0.00 in0.0 mm
07:40 AM 66.2°F19.0°C 61.2°F16.2°C 84% Calm Calm 4.5 mph7.2 kmh 30.13 in1020.3 mb 0.00 in0.0 mm 0.00 in0.0 mm 0.00 in0.0 mm
07:50 AM 68.0°F20.0°C 59.8°F15.4°C 75% Calm Calm 1.6 mph2.6 kmh 30.14 in1020.7 mb 0.00 in0.0 mm 0.00 in0.0 mm 0.00 in0.0 mm
08:00 AM 69.8°F21.0°C 60.4°F15.8°C 72% Calm Calm 2.2 mph3.5 kmh 30.14 in1020.7 mb 0.00 in0.0 mm 0.00 in0.0 mm 0.00 in0.0 mm
08:10 AM 70.2°F21.2°C 59.5°F15.3°C 69% Calm Calm 3.8 mph6.1 kmh 30.14 in1020.7 mb 0.00 in0.0 mm 0.00 in0.0 mm 0.00 in0.0 mm
08:20 AM 71.1°F21.7°C 60.4°F15.8°C 69% Calm Calm 4.5 mph7.2 kmh 30.14 in1020.7 mb 0.00 in0.0 mm 0.00 in0.0 mm 0.00 in0.0 mm
08:30 AM 69.1°F20.6°C 60.1°F15.6°C 73% 3.1 mph WSW5.0 kmh WSW 6.9 mph11.1 kmh 30.14 in1020.7 mb 0.00 in0.0 mm 0.00 in0.0 mm 0.00 in0.0 mm
08:40 AM 69.1°F20.6°C 60.8°F16.0°C 75% 3.8 mph SW6.1 kmh SW 6.0 mph9.7 kmh 30.14 in1020.7 mb 0.01 in0.3 mm 0.06 in1.5 mm 0.01 in0.3 mm
08:50 AM 69.4°F20.8°C 61.6°F16.4°C 76% 3.8 mph S6.1 kmh S 6.0 mph9.7 kmh 30.14 in1020.7 mb 0.01 in0.3 mm 0.00 in0.0 mm 0.01 in0.3 mm
09:00 AM 69.3°F20.7°C 61.4°F16.3°C 76% 3.8 mph SW6.1 kmh SW 6.0 mph9.7 kmh 30.14 in1020.7 mb 0.01 in0.3 mm 0.00 in0.0 mm 0.01 in0.3 mm
09:10 AM 69.8°F21.0°C 61.5°F16.4°C 75% 2.2 mph SW3.5 kmh SW 6.0 mph9.7 kmh 30.14 in1020.7 mb 0.01 in0.3 mm 0.00 in0.0 mm 0.01 in0.3 mm
09:20 AM 70.0°F21.1°C 61.3°F16.3°C 74% 2.2 mph SSW3.5 kmh SSW 6.9 mph11.1 kmh 30.14 in1020.7 mb 0.01 in0.3 mm 0.00 in0.0 mm 0.01 in0.3 mm
09:30 AM 70.3°F21.3°C 61.7°F16.5°C 74% 2.2 mph NW3.5 kmh NW 6.0 mph9.7 kmh 30.14 in1020.7 mb 0.01 in0.3 mm 0.00 in0.0 mm 0.01 in0.3 mm
09:40 AM 70.3°F21.3°C 62.1°F16.7°C 75% 3.8 mph WSW6.1 kmh WSW 6.9 mph11.1 kmh 30.14 in1020.7 mb 0.00 in0.0 mm 0.00 in0.0 mm 0.01 in0.3 mm
09:50 AM 70.3°F21.3°C 61.7°F16.5°C 74% 2.2 mph WSW3.5 kmh WSW 6.9 mph11.1 kmh 30.14 in1020.7 mb 0.00 in0.0 mm 0.00 in0.0 mm 0.01 in0.3 mm
10:00 AM 69.4°F20.8°C 61.9°F16.6°C 77% 5.4 mph NW8.7 kmh NW 9.8 mph15.8 kmh 30.14 in1020.7 mb 0.00 in0.0 mm 0.00 in0.0 mm 0.01 in0.3 mm
10:10 AM 68.2°F20.1°C 62.2°F16.8°C 81% 9.2 mph NW14.8 kmh NW 10.7 mph17.2 kmh 30.14 in1020.7 mb 0.00 in0.0 mm 0.00 in0.0 mm 0.01 in0.3 mm
10:20 AM 68.4°F20.2°C 62.0°F16.7°C 80% 6.0 mph SW9.7 kmh SW 9.8 mph15.8 kmh 30.15 in1021.0 mb 0.00 in0.0 mm 0.00 in0.0 mm 0.01 in0.3 mm
10:30 AM 69.1°F20.6°C 61.2°F16.2°C 76% 6.0 mph SE9.7 kmh SE 9.8 mph15.8 kmh 30.15 in1021.0 mb 0.00 in0.0 mm 0.00 in0.0 mm 0.01 in0.3 mm
10:40 AM 68.9°F20.5°C 61.4°F16.3°C 77% 5.4 mph NNW8.7 kmh NNW 10.7 mph17.2 kmh 30.15 in1021.0 mb 0.00 in0.0 mm 0.00 in0.0 mm 0.01 in0.3 mm
10:50 AM 69.4°F20.8°C 61.2°F16.2°C 75% 6.9 mph SW11.1 kmh SW 9.2 mph14.8 kmh 30.15 in1021.0 mb 0.00 in0.0 mm 0.00 in0.0 mm 0.01 in0.3 mm
11:00 AM 68.9°F20.5°C 60.7°F15.9°C 75% 6.0 mph NW9.7 kmh NW 10.7 mph17.2 kmh 30.15 in1021.0 mb 0.00 in0.0 mm 0.00 in0.0 mm 0.01 in0.3 mm
11:10 AM 68.4°F20.2°C 62.0°F16.7°C 80% 6.0 mph SSW9.7 kmh SSW 12.1 mph19.5 kmh 30.15 in1021.0 mb 0.00 in0.0 mm 0.00 in0.0 mm 0.01 in0.3 mm
11:20 AM 68.5°F20.3°C 62.2°F16.8°C 80% 6.9 mph WSW11.1 kmh WSW 11.4 mph18.3 kmh 30.15 in1021.0 mb 0.00 in0.0 mm 0.00 in0.0 mm 0.01 in0.3 mm
11:30 AM 68.7°F20.4°C 61.2°F16.2°C 77% 7.6 mph W12.2 kmh W 13.0 mph20.9 kmh 30.15 in1021.0 mb 0.00 in0.0 mm 0.00 in0.0 mm 0.01 in0.3 mm
11:40 AM 69.1°F20.6°C 61.2°F16.2°C 76% 6.0 mph SW9.7 kmh SW 10.7 mph17.2 kmh 30.15 in1021.0 mb 0.00 in0.0 mm 0.00 in0.0 mm 0.01 in0.3 mm
11:50 AM 69.8°F21.0°C 60.8°F16.0°C 73% 6.0 mph WSW9.7 kmh WSW 11.4 mph18.3 kmh 30.15 in1021.0 mb 0.00 in0.0 mm 0.00 in0.0 mm 0.01 in0.3 mm
12:00 PM 69.6°F20.9°C 59.8°F15.4°C 71% 6.9 mph W11.1 kmh W 12.1 mph19.5 kmh 30.15 in1021.0 mb 0.00 in0.0 mm 0.00 in0.0 mm 0.01 in0.3 mm
12:10 PM 67.8°F19.9°C 59.3°F15.2°C 74% 7.6 mph W12.2 kmh W 12.1 mph19.5 kmh 30.15 in1021.0 mb 0.00 in0.0 mm 0.00 in0.0 mm 0.01 in0.3 mm
12:20 PM 67.5°F19.7°C 59.7°F15.4°C 76% 6.0 mph SW9.7 kmh SW 13.0 mph20.9 kmh 30.15 in1021.0 mb 0.00 in0.0 mm 0.00 in0.0 mm 0.01 in0.3 mm
12:30 PM 68.7°F20.4°C 61.6°F16.4°C 78% 6.9 mph SW11.1 kmh SW 12.1 mph19.5 kmh 30.15 in1021.0 mb 0.00 in0.0 mm 0.00 in0.0 mm 0.01 in0.3 mm
12:40 PM 68.5°F20.3°C 63.2°F17.3°C 83% 7.6 mph W12.2 kmh W 13.0 mph20.9 kmh 30.15 in1021.0 mb 0.00 in0.0 mm 0.00 in0.0 mm 0.01 in0.3 mm
12:50 PM 69.1°F20.6°C 64.4°F18.0°C 85% 6.0 mph SW9.7 kmh SW 13.0 mph20.9 kmh 30.15 in1021.0 mb 0.00 in0.0 mm 0.00 in0.0 mm 0.01 in0.3 mm
01:00 PM 69.4°F20.8°C 64.1°F17.8°C 83% 7.6 mph WNW12.2 kmh WNW 12.1 mph19.5 kmh 30.15 in1021.0 mb 0.00 in0.0 mm 0.00 in0.0 mm 0.01 in0.3 mm
01:10 PM 68.4°F20.2°C 63.4°F17.4°C 84% 6.9 mph WSW11.1 kmh WSW 13.0 mph20.9 kmh 30.15 in1021.0 mb 0.00 in0.0 mm 0.00 in0.0 mm 0.01 in0.3 mm
01:20 PM 69.8°F21.0°C 64.1°F17.8°C 82% 8.3 mph W13.4 kmh W 13.0 mph20.9 kmh 30.15 in1021.0 mb 0.00 in0.0 mm 0.00 in0.0 mm 0.01 in0.3 mm
01:30 PM 69.8°F21.0°C 63.7°F17.6°C 81% 6.0 mph W9.7 kmh W 13.0 mph20.9 kmh 30.15 in1021.0 mb 0.00 in0.0 mm 0.00 in0.0 mm 0.01 in0.3 mm
01:40 PM 69.6°F20.9°C 63.2°F17.3°C 80% 4.5 mph NW7.2 kmh NW 11.4 mph18.3 kmh 30.16 in1021.3 mb 0.00 in0.0 mm 0.00 in0.0 mm 0.01 in0.3 mm
01:50 PM 70.0°F21.1°C 62.8°F17.1°C 78% 9.8 mph SW15.8 kmh SW 13.6 mph21.9 kmh 30.15 in1021.0 mb 0.00 in0.0 mm 0.00 in0.0 mm 0.01 in0.3 mm
02:00 PM 70.0°F21.1°C 63.2°F17.3°C 79% 6.9 mph SW11.1 kmh SW 13.0 mph20.9 kmh 30.16 in1021.3 mb 0.00 in0.0 mm 0.00 in0.0 mm 0.01 in0.3 mm
02:10 PM 70.5°F21.4°C 64.1°F17.8°C 80% 7.6 mph WSW12.2 kmh WSW 13.0 mph20.9 kmh 30.15 in1021.0 mb 0.00 in0.0 mm 0.00 in0.0 mm 0.01 in0.3 mm
02:20 PM 70.2°F21.2°C 62.6°F17.0°C 77% 8.3 mph WSW13.4 kmh WSW 13.0 mph20.9 kmh 30.15 in1021.0 mb 0.00 in0.0 mm 0.00 in0.0 mm 0.01 in0.3 mm
02:30 PM 70.0°F21.1°C 62.5°F16.9°C 77% 6.0 mph WSW9.7 kmh WSW 12.1 mph19.5 kmh 30.16 in1021.3 mb 0.00 in0.0 mm 0.00 in0.0 mm 0.01 in0.3 mm
02:40 PM 70.2°F21.2°C 63.7°F17.6°C 80% 7.6 mph W12.2 kmh W 13.0 mph20.9 kmh 30.15 in1021.0 mb 0.00 in0.0 mm 0.00 in0.0 mm 0.01 in0.3 mm
02:50 PM 70.9°F21.6°C 63.0°F17.2°C 76% 6.0 mph SW9.7 kmh SW 10.7 mph17.2 kmh 30.15 in1021.0 mb 0.00 in0.0 mm 0.00 in0.0 mm 0.01 in0.3 mm
03:00 PM 69.6°F20.9°C 62.8°F17.1°C 79% 6.0 mph N9.7 kmh N 11.4 mph18.3 kmh 30.16 in1021.3 mb 0.00 in0.0 mm 0.00 in0.0 mm 0.01 in0.3 mm
03:10 PM 70.9°F21.6°C 63.3°F17.4°C 77% 4.5 mph WSW7.2 kmh WSW 9.8 mph15.8 kmh 30.16 in1021.3 mb 0.00 in0.0 mm 0.00 in0.0 mm 0.01 in0.3 mm
03:20 PM 72.7°F22.6°C 63.6°F17.6°C 73% 4.5 mph SW7.2 kmh SW 7.6 mph12.2 kmh 30.16 in1021.3 mb 0.00 in0.0 mm 0.00 in0.0 mm 0.01 in0.3 mm
03:30 PM 72.0°F22.2°C 63.3°F17.4°C 74% 3.1 mph SW5.0 kmh SW 7.6 mph12.2 kmh 30.16 in1021.3 mb 0.00 in0.0 mm 0.00 in0.0 mm 0.01 in0.3 mm
03:40 PM 73.9°F23.3°C 61.9°F16.6°C 66% 2.2 mph ESE3.5 kmh ESE 6.9 mph11.1 kmh 30.16 in1021.3 mb 0.00 in0.0 mm 0.00 in0.0 mm 0.01 in0.3 mm
03:50 PM 70.3°F21.3°C 60.9°F16.1°C 72% 6.0 mph WNW9.7 kmh WNW 6.9 mph11.1 kmh 30.16 in1021.3 mb 0.00 in0.0 mm 0.00 in0.0 mm 0.01 in0.3 mm
04:00 PM 69.8°F21.0°C 62.3°F16.8°C 77% 5.4 mph SW8.7 kmh SW 7.6 mph12.2 kmh 30.15 in1021.0 mb 0.00 in0.0 mm 0.00 in0.0 mm 0.01 in0.3 mm
04:10 PM 68.4°F20.2°C 62.3°F16.8°C 81% 2.2 mph WSW3.5 kmh WSW 8.3 mph13.4 kmh 30.15 in1021.0 mb 0.00 in0.0 mm 0.00 in0.0 mm 0.01 in0.3 mm
04:20 PM 68.5°F20.3°C 61.8°F16.6°C 79% 2.2 mph WSW3.5 kmh WSW 6.9 mph11.1 kmh 30.15 in1021.0 mb 0.00 in0.0 mm 0.00 in0.0 mm 0.01 in0.3 mm
04:30 PM 68.7°F20.4°C 61.2°F16.2°C 77% 3.1 mph N5.0 kmh N 5.4 mph8.7 kmh 30.15 in1021.0 mb 0.00 in0.0 mm 0.00 in0.0 mm 0.01 in0.3 mm
04:40 PM 69.1°F20.6°C 61.2°F16.2°C 76% Calm Calm 6.0 mph9.7 kmh 30.15 in1021.0 mb 0.00 in0.0 mm 0.00 in0.0 mm 0.01 in0.3 mm
04:50 PM 72.5°F22.5°C 62.6°F17.0°C 71% 2.2 mph WSW3.5 kmh WSW 3.8 mph6.1 kmh 30.15 in1021.0 mb 0.00 in0.0 mm 0.00 in0.0 mm 0.01 in0.3 mm
05:00 PM 74.7°F23.7°C 60.8°F16.0°C 62% Calm Calm 4.5 mph7.2 kmh 30.15 in1021.0 mb 0.00 in0.0 mm 0.00 in0.0 mm 0.01 in0.3 mm
05:10 PM 75.6°F24.2°C 61.2°F16.2°C 61% Calm Calm -- 30.15 in1021.0 mb 0.00 in0.0 mm 0.00 in0.0 mm 0.01 in0.3 mm
05:20 PM 73.9°F23.3°C 61.9°F16.6°C 66% Calm Calm -- 30.15 in1021.0 mb 0.00 in0.0 mm 0.00 in0.0 mm 0.01 in0.3 mm
05:30 PM 72.0°F22.2°C 61.3°F16.3°C 69% 4.5 mph SW7.2 kmh SW 6.0 mph9.7 kmh 30.16 in1021.3 mb 0.00 in0.0 mm 0.00 in0.0 mm 0.01 in0.3 mm
05:40 PM 71.8°F22.1°C 61.1°F16.2°C 69% Calm Calm 6.0 mph9.7 kmh 30.15 in1021.0 mb 0.00 in0.0 mm 0.00 in0.0 mm 0.01 in0.3 mm
05:50 PM 72.5°F22.5°C 61.4°F16.3°C 68% Calm Calm 5.4 mph8.7 kmh 30.15 in1021.0 mb 0.00 in0.0 mm 0.00 in0.0 mm 0.01 in0.3 mm
06:00 PM 71.1°F21.7°C 62.4°F16.9°C 74% Calm Calm 6.9 mph11.1 kmh 30.16 in1021.3 mb 0.00 in0.0 mm 0.00 in0.0 mm 0.01 in0.3 mm
06:10 PM 70.2°F21.2°C 63.0°F17.2°C 78% 3.1 mph SW5.0 kmh SW 9.2 mph14.8 kmh 30.16 in1021.3 mb 0.00 in0.0 mm 0.00 in0.0 mm 0.01 in0.3 mm
06:20 PM 70.0°F21.1°C 62.5°F16.9°C 77% 3.1 mph WSW5.0 kmh WSW 8.3 mph13.4 kmh 30.16 in1021.3 mb 0.00 in0.0 mm 0.00 in0.0 mm 0.01 in0.3 mm
06:30 PM 69.6°F20.9°C 62.5°F16.9°C 78% 4.5 mph WSW7.2 kmh WSW 6.9 mph11.1 kmh 30.17 in1021.7 mb 0.00 in0.0 mm 0.00 in0.0 mm 0.01 in0.3 mm
06:40 PM 69.3°F20.7°C 62.5°F16.9°C 79% 3.8 mph SW6.1 kmh SW 6.9 mph11.1 kmh 30.17 in1021.7 mb 0.00 in0.0 mm 0.00 in0.0 mm 0.01 in0.3 mm
06:50 PM 68.7°F20.4°C 62.7°F17.1°C 81% 3.8 mph SW6.1 kmh SW 7.6 mph12.2 kmh 30.17 in1021.7 mb 0.00 in0.0 mm 0.00 in0.0 mm 0.01 in0.3 mm
07:00 PM 66.9°F19.4°C 62.0°F16.7°C 84% 3.1 mph SW5.0 kmh SW 8.3 mph13.4 kmh 30.17 in1021.7 mb 0.00 in0.0 mm 0.00 in0.0 mm 0.01 in0.3 mm
07:10 PM 65.3°F18.5°C 61.7°F16.5°C 88% 4.5 mph WSW7.2 kmh WSW 8.3 mph13.4 kmh 30.18 in1022.0 mb 0.00 in0.0 mm 0.00 in0.0 mm 0.01 in0.3 mm
07:20 PM 64.6°F18.1°C 61.6°F16.4°C 90% 5.4 mph SW8.7 kmh SW 8.3 mph13.4 kmh 30.18 in1022.0 mb 0.00 in0.0 mm 0.00 in0.0 mm 0.01 in0.3 mm
07:30 PM 64.6°F18.1°C 62.2°F16.8°C 92% 3.8 mph WSW6.1 kmh WSW 9.2 mph14.8 kmh 30.18 in1022.0 mb 0.00 in0.0 mm 0.00 in0.0 mm 0.01 in0.3 mm
07:40 PM 64.4°F18.0°C 62.0°F16.7°C 92% 0.7 mph SW1.1 kmh SW 5.4 mph8.7 kmh 30.19 in1022.4 mb 0.00 in0.0 mm 0.00 in0.0 mm 0.01 in0.3 mm
07:50 PM 64.0°F17.8°C 61.7°F16.5°C 92% 3.8 mph SW6.1 kmh SW 6.9 mph11.1 kmh 30.19 in1022.4 mb 0.00 in0.0 mm 0.00 in0.0 mm 0.01 in0.3 mm
08:00 PM 64.0°F17.8°C 61.7°F16.5°C 92% 3.8 mph SW6.1 kmh SW 5.4 mph8.7 kmh 30.20 in1022.7 mb 0.00 in0.0 mm 0.00 in0.0 mm 0.01 in0.3 mm
08:10 PM 63.7°F17.6°C 61.6°F16.4°C 93% Calm Calm 4.5 mph7.2 kmh 30.19 in1022.4 mb 0.00 in0.0 mm 0.00 in0.0 mm 0.01 in0.3 mm
08:20 PM 63.1°F17.3°C 61.4°F16.3°C 94% Calm Calm -- 30.20 in1022.7 mb 0.00 in0.0 mm 0.00 in0.0 mm 0.01 in0.3 mm
08:30 PM 62.8°F17.1°C 61.0°F16.1°C 94% Calm Calm -- 30.20 in1022.7 mb 0.00 in0.0 mm 0.00 in0.0 mm 0.01 in0.3 mm
08:40 PM 62.6°F17.0°C 60.9°F16.1°C 94% Calm Calm -- 30.20 in1022.7 mb 0.00 in0.0 mm 0.00 in0.0 mm 0.01 in0.3 mm
08:50 PM 62.4°F16.9°C 61.3°F16.3°C 96% Calm Calm -- 30.20 in1022.7 mb 0.00 in0.0 mm 0.00 in0.0 mm 0.01 in0.3 mm
09:00 PM 62.4°F16.9°C 61.3°F16.3°C 96% Calm Calm -- 30.20 in1022.7 mb 0.00 in0.0 mm 0.00 in0.0 mm 0.01 in0.3 mm
09:10 PM 62.1°F16.7°C 61.2°F16.2°C 97% Calm Calm -- 30.21 in1023.0 mb 0.00 in0.0 mm 0.00 in0.0 mm 0.01 in0.3 mm
09:20 PM 61.7°F16.5°C 60.9°F16.1°C 97% Calm Calm -- 30.21 in1023.0 mb 0.00 in0.0 mm 0.00 in0.0 mm 0.01 in0.3 mm
09:30 PM 61.7°F16.5°C 61.1°F16.2°C 98% 1.6 mph N2.6 kmh N 3.1 mph5.0 kmh 30.20 in1022.7 mb 0.00 in0.0 mm 0.00 in0.0 mm 0.01 in0.3 mm
09:40 PM 61.7°F16.5°C 61.1°F16.2°C 98% Calm Calm 3.1 mph5.0 kmh 30.21 in1023.0 mb 0.00 in0.0 mm 0.00 in0.0 mm 0.01 in0.3 mm
09:50 PM 61.7°F16.5°C 61.1°F16.2°C 98% Calm Calm -- 30.21 in1023.0 mb 0.00 in0.0 mm 0.00 in0.0 mm 0.01 in0.3 mm
10:00 PM 61.5°F16.4°C 61.0°F16.1°C 98% Calm Calm -- 30.21 in1023.0 mb 0.00 in0.0 mm 0.00 in0.0 mm 0.01 in0.3 mm
10:10 PM 61.3°F16.3°C 60.8°F16.0°C 98% 1.6 mph NNW2.6 kmh NNW 5.4 mph8.7 kmh 30.21 in1023.0 mb 0.00 in0.0 mm 0.00 in0.0 mm 0.01 in0.3 mm
10:20 PM 61.2°F16.2°C 60.6°F15.9°C 98% 2.2 mph N3.5 kmh N 4.5 mph7.2 kmh 30.21 in1023.0 mb 0.00 in0.0 mm 0.00 in0.0 mm 0.01 in0.3 mm
10:30 PM 61.0°F16.1°C 60.4°F15.8°C 98% 2.2 mph NNW3.5 kmh NNW 4.5 mph7.2 kmh 30.21 in1023.0 mb 0.00 in0.0 mm 0.00 in0.0 mm 0.01 in0.3 mm
10:40 PM 61.0°F16.1°C 60.4°F15.8°C 98% 0.7 mph NNW1.1 kmh NNW 3.8 mph6.1 kmh 30.21 in1023.0 mb 0.00 in0.0 mm 0.00 in0.0 mm 0.01 in0.3 mm
10:50 PM 60.8°F16.0°C 60.2°F15.7°C 98% Calm Calm 2.2 mph3.5 kmh 30.21 in1023.0 mb 0.00 in0.0 mm 0.00 in0.0 mm 0.01 in0.3 mm
11:00 PM 60.8°F16.0°C 60.2°F15.7°C 98% 2.2 mph NNW3.5 kmh NNW 3.8 mph6.1 kmh 30.22 in1023.4 mb 0.00 in0.0 mm 0.00 in0.0 mm 0.01 in0.3 mm
11:10 PM 60.8°F16.0°C 60.2°F15.7°C 98% Calm Calm 3.1 mph5.0 kmh 30.21 in1023.0 mb 0.00 in0.0 mm 0.00 in0.0 mm 0.01 in0.3 mm
11:20 PM 60.8°F16.0°C 60.2°F15.7°C 98% Calm Calm 3.1 mph5.0 kmh 30.21 in1023.0 mb 0.00 in0.0 mm 0.00 in0.0 mm 0.01 in0.3 mm
11:30 PM 61.0°F16.1°C 60.4°F15.8°C 98% Calm Calm 2.2 mph3.5 kmh 30.21 in1023.0 mb 0.00 in0.0 mm 0.00 in0.0 mm 0.01 in0.3 mm
11:40 PM 61.2°F16.2°C 60.6°F15.9°C 98% 1.6 mph N2.6 kmh N 3.8 mph6.1 kmh 30.21 in1023.0 mb 0.00 in0.0 mm 0.00 in0.0 mm 0.01 in0.3 mm
11:50 PM 61.2°F16.2°C 60.6°F15.9°C 98% Calm Calm 3.8 mph6.1 kmh 30.21 in1023.0 mb 0.00 in0.0 mm 0.00 in0.0 mm 0.01 in0.3 mm